Terminal Aerodrome Forecast
Issued by NWS

Home | Current Version | Previous Version | Text Only | Print | Product List | Glossary On
Versions: 1 2 3 4 5 6 7 8 9 10 11 12 13 14 15 16 17 18 19 20 21 22
000
FTUS45 KGJT 220534
TAFVEL
TAF
KVEL 220534Z 2206/2306 00000KT P6SM OVC100
     FM221200 VRB03KT P6SM OVC070
     FM222000 19005KT P6SM FEW040 SCT090
     FM222200 19005KT P6SM SCT045 BKN060
     FM230400 36004KT P6SM OVC040=

USA.gov is the U.S. government's official web portal to all federal, state and local government web resources and services.